Barcelona Aeropuerto

latitud = 41° 17' 34''N | longitud = 002° 04' 12''E
4 metros sobre el nivel del mar | datos mensuales

Fecha, hora, temperatura, viento dirección y velocidad, humedad y presión.

  • 23-04-2018 10:00:00 | 19.30°C | Norte |8.00 km/h | 57.00% | 1018.90 hPa
  • 23-04-2018 09:00:00 | 17.20°C | Norte |14.00 km/h | 62.00% | 1018.60 hPa
  • 23-04-2018 08:00:00 | 15.90°C | Norte |13.00 km/h | 64.00% | 1018.20 hPa
  • 23-04-2018 07:00:00 | 14.80°C | Norte |15.00 km/h | 69.00% | 1018.00 hPa
  • 23-04-2018 06:00:00 | 15.10°C | Norte |4.00 km/h | 70.00% | 1017.30 hPa
  • 23-04-2018 05:00:00 | 15.20°C | Noroeste |3.00 km/h | 72.00% | 1017.60 hPa
  • 23-04-2018 04:00:00 | 15.40°C | Calma |0.00 km/h | 75.00% | 1017.80 hPa
  • 23-04-2018 03:00:00 | 15.00°C | Norte |2.00 km/h | 79.00% | 1018.10 hPa
  • 23-04-2018 02:00:00 | 16.00°C | Oeste |4.00 km/h | 90.00% | 1018.30 hPa
  • 23-04-2018 01:00:00 | 16.10°C | Sudoeste |6.00 km/h | 88.00% | 1018.50 hPa
  • 23-04-2018 00:00:00 | 16.20°C | Oeste |8.00 km/h | 87.00% | 1018.60 hPa
  • 22-04-2018 23:00:00 | 16.20°C | Oeste |8.00 km/h | 84.00% | 1018.50 hPa
  • 22-04-2018 22:00:00 | 17.40°C | Sudoeste |10.00 km/h | 78.00% | 1018.00 hPa
  • 22-04-2018 21:00:00 | 18.20°C | Sudoeste |12.00 km/h | 70.00% | 1017.60 hPa
  • 22-04-2018 20:00:00 | 19.50°C | Sudoeste |17.00 km/h | 57.00% | 1017.10 hPa
  • 22-04-2018 19:00:00 | 20.70°C | Sudoeste |17.00 km/h | 52.00% | 1016.70 hPa
  • 22-04-2018 18:00:00 | 21.00°C | Sudoeste |23.00 km/h | 53.00% | 1016.70 hPa
  • 22-04-2018 17:00:00 | 22.20°C | Sudoeste |20.00 km/h | 49.00% | 1016.40 hPa
  • 22-04-2018 16:00:00 | 21.80°C | Sudoeste |27.00 km/h | 50.00% | 1017.20 hPa
  • 22-04-2018 15:00:00 | 21.30°C | Sudoeste |24.00 km/h | 55.00% | 1017.60 hPa
  • 22-04-2018 14:00:00 | 20.80°C | Sudoeste |23.00 km/h | 57.00% | 1017.90 hPa
  • 22-04-2018 13:00:00 | 20.10°C | Sudoeste |22.00 km/h | 62.00% | 1018.20 hPa
  • 22-04-2018 12:00:00 | 19.60°C | Sudoeste |24.00 km/h | 61.00% | 1018.30 hPa
  • 22-04-2018 11:00:00 | 18.80°C | Sudoeste |19.00 km/h | 64.00% | 1018.30 hPa